Time;durP1;ratioP1;P1;durP2;ratioP2;P2;SDS_P1;SDS_P2;PMS_P1;PMS_P2;Temp;Humidity;BMP_temperature;BMP_pressure;BME280_temperature;BME280_humidity;BME280_pressure;Samples;Min_cycle;Max_cycle;Signal;HPM_P1;HPM_P2
2022/03/03 00:02:12;;;;;;;28.67;15.00;;;;;;;0.54;79.23;101046.22;1646136;86;25785;-57
2022/03/03 00:04:39;;;;;;;20.88;13.58;;;;;;;0.55;79.00;101038.20;1645840;85;28185;-57
2022/03/03 00:07:06;;;;;;;22.90;13.72;;;;;;;0.60;78.94;101044.63;1645922;87;25779;-57
2022/03/03 00:09:33;;;;;;;26.00;13.75;;;;;;;0.57;78.86;101039.01;1676448;85;27496;-57
2022/03/03 00:12:01;;;;;;;21.57;13.98;;;;;;;0.55;78.84;101042.62;1676393;85;25796;-57
2022/03/03 00:14:28;;;;;;;23.10;14.13;;;;;;;0.57;78.86;101044.75;1645728;85;25832;-57
2022/03/03 00:16:55;;;;;;;22.70;13.80;;;;;;;0.58;78.84;101042.02;1645980;87;26047;-56
2022/03/03 00:19:22;;;;;;;22.80;13.93;;;;;;;0.64;78.84;101044.88;1676507;85;25814;-57
2022/03/03 00:21:49;;;;;;;27.20;14.23;;;;;;;0.69;78.72;101040.70;1658565;85;27425;-56
2022/03/03 00:24:16;;;;;;;20.40;12.28;;;;;;;0.72;78.63;101037.94;1692277;84;25638;-58
2022/03/03 00:26:43;;;;;;;21.95;13.70;;;;;;;0.74;78.62;101032.97;1692501;84;25828;-57
2022/03/03 00:29:10;;;;;;;19.37;12.37;;;;;;;0.77;78.43;101030.64;1692281;84;26121;-57
2022/03/03 00:31:37;;;;;;;20.48;13.08;;;;;;;0.75;78.27;101031.20;1697090;84;25782;-57
2022/03/03 00:34:04;;;;;;;22.15;12.70;;;;;;;0.76;78.41;101027.63;1696786;84;27557;-57
2022/03/03 00:36:31;;;;;;;22.93;13.00;;;;;;;0.76;78.29;101027.14;1699891;83;25761;-57
2022/03/03 00:38:58;;;;;;;24.27;14.03;;;;;;;0.79;78.27;101030.12;1719554;83;25756;-56
2022/03/03 00:41:25;;;;;;;21.93;12.85;;;;;;;0.80;78.26;101028.34;1719505;83;28246;-56
2022/03/03 00:43:52;;;;;;;21.68;13.62;;;;;;;0.79;78.00;101024.82;1706998;83;25789;-57
2022/03/03 00:46:19;;;;;;;19.98;13.13;;;;;;;0.77;78.02;101027.55;1692350;83;27494;-57
2022/03/03 00:48:46;;;;;;;20.20;13.38;;;;;;;0.78;78.10;101030.59;1696926;83;25472;-57
2022/03/03 00:51:13;;;;;;;22.73;12.68;;;;;;;0.70;77.96;101030.52;1692402;84;25789;-56
2022/03/03 00:53:40;;;;;;;21.97;13.88;;;;;;;0.68;78.00;101025.30;1692249;84;26129;-57
2022/03/03 00:56:07;;;;;;;23.25;14.58;;;;;;;0.69;77.94;101038.06;1696920;84;25905;-57
2022/03/03 00:58:34;;;;;;;21.37;13.60;;;;;;;0.69;77.99;101021.73;1696948;82;27487;-56
2022/03/03 01:01:01;;;;;;;19.65;13.50;;;;;;;0.72;78.06;101026.02;1696928;84;25610;-56
2022/03/03 01:03:28;;;;;;;21.42;13.10;;;;;;;0.75;78.08;101018.80;1696810;84;25879;-57
2022/03/03 01:05:55;;;;;;;22.30;13.18;;;;;;;0.77;77.90;101019.60;1692239;84;26752;-57
2022/03/03 01:08:22;;;;;;;21.65;13.08;;;;;;;0.72;77.84;101017.59;1692198;84;25771;-57
2022/03/03 01:10:50;;;;;;;28.95;13.93;;;;;;;0.66;77.77;101022.33;1692191;84;27504;-57
2022/03/03 01:13:17;;;;;;;22.35;13.40;;;;;;;0.60;77.99;101018.16;1696872;83;25744;-57
2022/03/03 01:15:45;;;;;;;22.82;12.13;;;;;;;0.60;78.13;101020.80;1696984;84;25597;-57
2022/03/03 01:18:12;;;;;;;22.13;13.75;;;;;;;0.59;78.17;101014.62;1697228;84;26070;-57
2022/03/03 01:20:39;;;;;;;21.48;13.58;;;;;;;0.59;78.03;101013.30;1692595;84;25729;-57
2022/03/03 01:23:06;;;;;;;18.07;12.78;;;;;;;0.53;78.31;101013.58;1645552;87;27515;-57
2022/03/03 01:25:33;;;;;;;24.05;13.18;;;;;;;0.52;78.30;101003.06;1676299;84;25976;-57
2022/03/03 01:28:00;;;;;;;24.52;14.05;;;;;;;0.51;78.21;101007.48;1645535;87;25681;-61
2022/03/03 01:30:27;;;;;;;23.75;13.03;;;;;;;0.49;78.40;101013.33;1676011;85;26381;-61
2022/03/03 01:32:55;;;;;;;20.97;12.63;;;;;;;0.53;78.34;101006.11;1645275;85;25791;-61
2022/03/03 01:35:22;;;;;;;20.65;13.88;;;;;;;0.57;78.28;101001.06;1676163;84;27494;-61
2022/03/03 01:37:49;;;;;;;21.65;12.78;;;;;;;0.58;78.24;101000.98;1644151;86;25865;-62
2022/03/03 01:40:16;;;;;;;26.95;13.65;;;;;;;0.60;78.23;101010.20;1703103;83;25827;-62
2022/03/03 01:42:43;;;;;;;24.82;13.75;;;;;;;0.63;78.08;100999.46;1698818;84;26150;-60
2022/03/03 01:45:10;;;;;;;25.12;13.28;;;;;;;0.65;78.14;100994.13;1676371;84;25723;-61
2022/03/03 01:47:37;;;;;;;20.65;13.00;;;;;;;0.60;77.98;100989.03;1645904;85;28326;-61
2022/03/03 01:50:06;;;;;;;22.50;13.08;;;;;;;0.60;78.02;100997.81;1677091;84;25536;-60
2022/03/03 01:52:34;;;;;;;21.95;12.37;;;;;;;0.58;78.01;100990.88;1676380;85;25762;-61
2022/03/03 01:55:01;;;;;;;21.90;12.58;;;;;;;0.49;78.29;100991.27;1645665;87;26110;-61
2022/03/03 01:57:29;;;;;;;23.22;13.18;;;;;;;0.46;78.34;100997.08;1676307;84;25788;-61
2022/03/03 01:59:57;;;;;;;21.48;12.63;;;;;;;0.41;78.67;100986.29;1645731;87;28094;-61
2022/03/03 02:02:26;;;;;;;22.95;12.53;;;;;;;0.38;78.88;100989.09;1675824;85;25816;-61
2022/03/03 02:04:54;;;;;;;21.33;13.10;;;;;;;0.37;78.80;100982.92;1645761;87;25972;-61
2022/03/03 02:07:22;;;;;;;22.22;12.63;;;;;;;0.36;78.90;100984.32;1676313;85;26762;-60
2022/03/03 02:09:48;;;;;;;22.87;14.03;;;;;;;0.36;78.98;100981.67;1645807;85;25767;-61
2022/03/03 02:12:15;;;;;;;22.80;13.08;;;;;;;0.32;79.13;100982.27;1676420;84;28174;-62
2022/03/03 02:14:45;;;;;;;23.90;13.60;;;;;;;0.27;79.34;100982.46;1645659;85;25808;-60
2022/03/03 02:17:13;;;;;;;27.15;14.20;;;;;;;0.25;79.71;100979.02;1676411;85;25811;-61
2022/03/03 02:19:41;;;;;;;21.48;13.05;;;;;;;0.27;79.47;100978.49;1645502;86;26350;-60
2022/03/03 02:22:09;;;;;;;22.67;13.58;;;;;;;0.30;79.43;100984.98;1676965;85;25725;-61
2022/03/03 02:24:38;;;;;;;22.25;12.43;;;;;;;0.31;79.77;100978.74;1646065;87;27449;-61
2022/03/03 02:27:07;;;;;;;23.00;12.85;;;;;;;0.35;79.52;100973.33;1675569;85;26143;-60
2022/03/03 02:29:35;;;;;;;25.00;14.30;;;;;;;0.38;79.47;100975.86;1645984;86;25649;-61
2022/03/03 02:32:05;;;;;;;23.35;13.75;;;;;;;0.42;79.34;100967.72;1676303;84;25734;-61
2022/03/03 02:34:33;;;;;;;22.90;13.15;;;;;;;0.51;79.32;100969.57;1646169;85;25800;-60
2022/03/03 02:36:59;;;;;;;22.05;13.20;;;;;;;0.55;79.25;100968.49;1681835;84;27458;-61
2022/03/03 02:39:27;;;;;;;21.95;13.50;;;;;;;0.53;79.31;100959.78;1704550;84;25797;-61
2022/03/03 02:41:53;;;;;;;25.68;12.33;;;;;;;0.49;79.18;100963.03;1704497;84;25719;-61
2022/03/03 02:44:20;;;;;;;22.67;13.13;;;;;;;0.46;79.48;100957.86;1704799;84;26166;-61
2022/03/03 02:46:47;;;;;;;23.50;12.55;;;;;;;0.42;79.27;100960.23;1678342;84;26355;-61
2022/03/03 02:49:14;;;;;;;23.07;13.45;;;;;;;0.40;79.39;100959.45;1645892;87;27478;-60
2022/03/03 02:51:41;;;;;;;19.90;12.35;;;;;;;0.39;79.45;100953.77;1676535;85;25833;-61
2022/03/03 02:54:08;;;;;;;25.92;12.90;;;;;;;0.37;79.53;100957.78;1676201;84;25828;-61
2022/03/03 02:57:53;;;;;;;19.27;12.28;;;;;;;0.35;79.36;100950.84;1645748;85;27088;-61
2022/03/03 02:59:04;;;;;;;25.30;14.87;;;;;;;0.36;79.69;100951.23;1673343;85;25925;-61
2022/03/03 03:01:30;;;;;;;21.97;12.90;;;;;;;0.33;79.66;100952.68;1645855;87;27478;-61
2022/03/03 03:03:57;;;;;;;23.05;12.80;;;;;;;0.34;79.55;100953.08;1676608;84;26342;-61
2022/03/03 03:06:24;;;;;;;29.87;14.05;;;;;;;0.33;79.81;100946.06;1645763;87;25757;-61
2022/03/03 03:08:51;;;;;;;23.77;13.72;;;;;;;0.34;79.60;100946.02;1676740;84;26058;-61
2022/03/03 03:11:18;;;;;;;24.90;13.65;;;;;;;0.35;79.61;100958.77;1645926;85;25965;-61
2022/03/03 03:13:45;;;;;;;21.07;12.43;;;;;;;0.33;79.55;100948.71;1676550;84;28127;-61
2022/03/03 03:16:12;;;;;;;23.85;14.28;;;;;;;0.32;79.70;100955.80;1676809;85;26017;-61
2022/03/03 03:18:40;;;;;;;24.32;13.58;;;;;;;0.31;79.54;100956.25;1676554;85;26328;-61
2022/03/03 03:21:07;;;;;;;21.10;12.88;;;;;;;0.34;79.61;100950.44;1676515;85;26103;-62
2022/03/03 03:23:34;;;;;;;24.60;14.23;;;;;;;0.34;79.64;100951.31;1646570;85;26202;-61
2022/03/03 03:26:02;;;;;;;24.75;14.18;;;;;;;0.37;79.52;100948.52;1677015;85;27501;-61
2022/03/03 03:28:29;;;;;;;23.02;13.32;;;;;;;0.44;79.54;100949.12;1677094;85;25469;-61
2022/03/03 03:30:56;;;;;;;21.40;12.50;;;;;;;0.50;79.54;100952.81;1646152;86;25672;-61
2022/03/03 03:33:23;;;;;;;23.67;13.68;;;;;;;0.54;79.35;100957.06;1676901;84;26122;-61
2022/03/03 03:35:50;;;;;;;24.27;13.62;;;;;;;0.55;79.21;100944.22;1678178;84;25794;-61
2022/03/03 03:38:17;;;;;;;22.58;13.60;;;;;;;0.60;79.16;100950.64;1676821;84;27474;-61
2022/03/03 03:40:44;;;;;;;24.35;14.05;;;;;;;0.62;79.05;100950.95;1676624;84;25840;-61
2022/03/03 03:43:11;;;;;;;23.50;13.43;;;;;;;0.60;78.82;100947.52;1687148;84;25580;-60
2022/03/03 03:45:38;;;;;;;22.17;13.68;;;;;;;0.57;78.63;100942.82;1692662;83;26431;-60
2022/03/03 03:48:05;;;;;;;22.67;12.85;;;;;;;0.57;78.80;100946.34;1646565;86;25753;-60
2022/03/03 03:50:32;;;;;;;32.50;15.03;;;;;;;0.55;78.68;100946.87;1676879;85;28735;-61
2022/03/03 03:52:59;;;;;;;29.12;15.23;;;;;;;0.56;78.60;100941.97;1676733;84;26381;-61
2022/03/03 03:55:26;;;;;;;27.58;14.40;;;;;;;0.56;78.64;100946.39;1677179;84;25516;-61
2022/03/03 03:57:53;;;;;;;26.07;14.80;;;;;;;0.57;78.62;100945.02;1676604;84;26907;-61
2022/03/03 04:00:20;;;;;;;22.37;13.72;;;;;;;0.54;78.52;100941.66;1677364;84;25802;-61
2022/03/03 04:02:48;;;;;;;28.25;13.72;;;;;;;0.52;78.42;100945.67;1676809;84;27022;-61
2022/03/03 04:05:15;;;;;;;23.50;13.43;;;;;;;0.55;78.51;100944.22;1676731;84;25709;-61
2022/03/03 04:07:43;;;;;;;22.17;13.03;;;;;;;0.56;78.44;100945.06;1677963;84;25749;-62
2022/03/03 04:10:11;;;;;;;25.23;13.40;;;;;;;0.53;78.39;100943.90;1677519;84;26121;-61
2022/03/03 04:12:39;;;;;;;25.25;14.55;;;;;;;0.50;78.37;100938.25;1646318;85;25828;-61
2022/03/03 04:15:08;;;;;;;26.75;14.98;;;;;;;0.46;78.58;100941.98;1676799;85;27520;-61
2022/03/03 04:17:35;;;;;;;27.52;15.10;;;;;;;0.45;78.57;100938.93;1677483;84;25759;-61
2022/03/03 04:20:02;;;;;;;23.12;13.93;;;;;;;0.46;78.63;100937.53;1677310;84;25789;-61
2022/03/03 04:22:30;;;;;;;24.45;13.50;;;;;;;0.43;78.72;100942.98;1676576;84;25824;-61
2022/03/03 04:24:57;;;;;;;22.87;13.72;;;;;;;0.41;78.71;100932.91;1676562;83;25730;-61
2022/03/03 04:27:24;;;;;;;24.02;14.15;;;;;;;0.36;78.82;100942.82;1645820;87;27486;-62
2022/03/03 04:29:51;;;;;;;27.98;14.98;;;;;;;0.29;78.99;100940.92;1677056;84;25753;-62
2022/03/03 04:32:18;;;;;;;23.35;13.48;;;;;;;0.26;79.30;100933.59;1676368;84;26508;-61
2022/03/03 04:34:45;;;;;;;25.85;13.90;;;;;;;0.24;79.23;100937.59;1645726;85;26179;-60
2022/03/03 04:37:12;;;;;;;29.25;14.00;;;;;;;0.25;79.30;100931.38;1708229;82;25840;-61
2022/03/03 04:39:39;;;;;;;27.65;13.68;;;;;;;0.21;79.64;100931.14;1732370;82;27456;-61
2022/03/03 04:42:07;;;;;;;24.52;14.65;;;;;;;0.20;79.58;100930.73;1732218;81;25704;-61
2022/03/03 04:44:34;;;;;;;25.50;13.30;;;;;;;0.22;79.57;100933.30;1705997;82;25725;-61
2022/03/03 04:47:02;;;;;;;22.30;13.78;;;;;;;0.23;79.72;100930.58;1676747;84;27371;-62
2022/03/03 04:49:29;;;;;;;24.20;12.88;;;;;;;0.20;79.74;100929.41;1645896;86;25700;-60
2022/03/03 04:51:56;;;;;;;25.43;14.38;;;;;;;0.24;79.84;100932.78;1645910;87;27862;-61
2022/03/03 04:54:23;;;;;;;26.55;14.85;;;;;;;0.28;79.62;100924.65;1676383;84;25478;-61
2022/03/03 04:56:52;;;;;;;26.20;13.22;;;;;;;0.31;79.50;100924.49;1676308;84;25952;-61
2022/03/03 04:59:19;;;;;;;21.00;12.90;;;;;;;0.38;79.46;100919.80;1676424;84;26116;-61
2022/03/03 05:01:46;;;;;;;27.73;13.53;;;;;;;0.39;79.31;100925.97;1645828;85;25749;-61
2022/03/03 05:04:13;;;;;;;23.07;13.68;;;;;;;0.39;79.23;100925.97;1624978;87;27587;-60
2022/03/03 05:06:39;;;;;;;21.30;13.08;;;;;;;0.34;79.04;100925.30;1676331;85;25819;-60
2022/03/03 05:09:06;;;;;;;20.88;12.53;;;;;;;0.33;79.03;100926.22;1676507;85;25644;-61
2022/03/03 05:11:33;;;;;;;19.87;12.30;;;;;;;0.27;79.15;100914.98;1645968;85;28266;-61
2022/03/03 05:14:00;;;;;;;23.87;13.83;;;;;;;0.31;79.07;100923.65;1676519;84;25445;-60
2022/03/03 05:16:27;;;;;;;21.20;11.83;;;;;;;0.34;79.28;100929.27;1645787;85;27421;-60
2022/03/03 05:18:57;;;;;;;23.55;13.30;;;;;;;0.32;79.15;100928.02;1645967;85;25773;-61
2022/03/03 05:21:23;;;;;;;27.15;14.65;;;;;;;0.36;79.06;100922.97;1645703;85;25763;-60
2022/03/03 05:23:49;;;;;;;23.02;13.48;;;;;;;0.35;79.13;100923.05;1676434;85;26931;-61
2022/03/03 05:26:18;;;;;;;21.15;12.78;;;;;;;0.35;79.03;100922.61;1676638;85;25777;-61
2022/03/03 05:28:45;;;;;;;23.70;12.78;;;;;;;0.35;79.16;100920.41;1646090;85;28232;-62
2022/03/03 05:31:12;;;;;;;29.27;17.02;;;;;;;0.31;79.37;100924.97;1676736;84;25861;-60
2022/03/03 05:33:41;;;;;;;22.10;12.95;;;;;;;0.32;79.40;100922.73;1646118;85;25715;-61
2022/03/03 05:36:10;;;;;;;20.55;12.68;;;;;;;0.30;79.56;100926.77;1679331;84;26096;-60
2022/03/03 05:38:38;;;;;;;23.80;13.32;;;;;;;0.30;79.46;100926.77;1703583;84;25756;-61
2022/03/03 05:41:06;;;;;;;22.67;13.88;;;;;;;0.28;79.46;100923.33;1703264;84;27475;-60
2022/03/03 05:43:35;;;;;;;25.20;14.30;;;;;;;0.28;79.68;100923.77;1703717;83;25805;-61
2022/03/03 05:46:03;;;;;;;23.95;13.48;;;;;;;0.24;79.69;100922.20;1686764;84;25679;-59
2022/03/03 05:48:31;;;;;;;21.77;13.13;;;;;;;0.23;79.71;100922.64;1676342;85;26905;-60
2022/03/03 05:50:57;;;;;;;27.00;13.50;;;;;;;0.22;79.88;100924.92;1676274;84;25651;-60
2022/03/03 05:53:25;;;;;;;25.70;14.03;;;;;;;0.21;79.73;100919.23;1676251;85;27476;-60
2022/03/03 05:55:56;;;;;;;24.27;14.50;;;;;;;0.22;79.85;100924.05;1676151;85;25850;-60
2022/03/03 05:58:29;;;;;;;20.88;12.73;;;;;;;0.31;80.01;100924.49;1676503;85;25727;-60
2022/03/03 06:00:59;;;;;;;23.25;13.48;;;;;;;0.44;79.95;100918.68;1676339;85;26086;-60
2022/03/03 06:03:30;;;;;;;21.10;12.37;;;;;;;0.51;79.55;100922.77;1676657;85;25758;-61
2022/03/03 06:06:15;;;;;;;31.20;15.13;;;;;;;0.59;79.38;100928.58;1676264;85;27463;-61
2022/03/03 06:09:11;;;;;;;29.05;13.00;;;;;;;0.60;78.90;100925.01;1676725;84;25525;-61
2022/03/03 06:12:04;;;;;;;25.77;12.35;;;;;;;0.61;78.82;100930.70;1639114;87;26013;-61
2022/03/03 06:14:41;;;;;;;25.65;13.13;;;;;;;0.65;78.92;100932.75;1639140;87;26109;-60
2022/03/03 06:17:09;;;;;;;21.93;11.43;;;;;;;0.61;78.59;100936.00;1639337;87;25900;-60
2022/03/03 06:19:42;;;;;;;19.23;11.08;;;;;;;0.60;78.58;100928.98;1639454;86;28147;-60
2022/03/03 06:22:11;;;;;;;18.15;10.88;;;;;;;0.64;78.66;100929.70;1639477;86;26381;-60
2022/03/03 06:24:39;;;;;;;18.12;11.48;;;;;;;0.61;78.43;100925.89;1639094;87;25794;-61
2022/03/03 06:27:08;;;;;;;28.62;13.88;;;;;;;0.66;78.72;100929.66;1639767;86;26205;-61
2022/03/03 06:29:36;;;;;;;24.00;12.73;;;;;;;0.63;78.72;100934.59;1638902;87;25880;-61
2022/03/03 06:32:05;;;;;;;26.85;13.08;;;;;;;0.59;78.65;100935.20;1638870;87;27464;-61
2022/03/03 06:34:32;;;;;;;19.27;12.40;;;;;;;0.54;78.91;100930.58;1637315;87;25952;-61
2022/03/03 06:37:00;;;;;;;25.20;13.58;;;;;;;0.53;79.16;100923.56;1651388;86;25720;-61
2022/03/03 06:39:27;;;;;;;22.45;12.82;;;;;;;0.56;79.29;100925.21;1664714;86;26120;-60
2022/03/03 06:41:54;;;;;;;20.02;11.28;;;;;;;0.55;79.04;100927.02;1673057;84;25803;-60
2022/03/03 06:44:22;;;;;;;20.45;12.20;;;;;;;0.53;79.26;100934.16;1704600;84;27576;-61
2022/03/03 06:46:49;;;;;;;27.02;13.08;;;;;;;0.51;79.15;100929.86;1677713;84;25683;-60
2022/03/03 06:49:17;;;;;;;22.60;13.43;;;;;;;0.43;79.60;100937.69;1645773;87;25756;-61
2022/03/03 06:51:47;;;;;;;27.65;14.78;;;;;;;0.45;79.83;100930.98;1676559;85;26857;-60
2022/03/03 06:54:19;;;;;;;24.15;12.65;;;;;;;0.44;79.71;100939.41;1645903;87;25743;-61
2022/03/03 06:56:51;;;;;;;20.50;11.50;;;;;;;0.45;79.82;100934.48;1676352;84;27925;-60
2022/03/03 06:59:22;;;;;;;20.80;12.68;;;;;;;0.51;79.80;100929.86;1645765;87;26287;-61
2022/03/03 07:01:51;;;;;;;17.45;11.40;;;;;;;0.49;79.91;100934.36;1676313;85;25654;-60
2022/03/03 07:04:19;;;;;;;20.23;11.63;;;;;;;0.45;79.86;100927.86;1676283;84;26076;-61
2022/03/03 07:06:48;;;;;;;20.43;12.45;;;;;;;0.52;80.00;100933.75;1645967;87;25888;-60
2022/03/03 07:09:16;;;;;;;21.60;11.78;;;;;;;0.61;79.88;100928.53;1676328;84;27495;-61
2022/03/03 07:11:45;;;;;;;18.77;10.93;;;;;;;0.62;79.81;100931.58;1646247;86;25847;-61
2022/03/03 07:14:13;;;;;;;20.00;11.55;;;;;;;0.65;79.73;100928.77;1676339;85;25540;-61
2022/03/03 07:17:15;;;;;;;18.87;11.00;;;;;;;0.68;79.71;100946.30;1675914;85;26754;-61
2022/03/03 07:19:50;;;;;;;21.45;11.90;;;;;;;0.70;79.53;100935.19;1766712;79;25826;-61
2022/03/03 07:22:57;;;;;;;21.82;12.75;;;;;;;0.68;79.59;100941.01;1766364;81;28160;-61
2022/03/03 07:25:32;;;;;;;23.67;14.23;;;;;;;0.65;79.47;100937.20;1766833;81;25810;-62
2022/03/03 07:28:02;;;;;;;20.32;12.13;;;;;;;0.68;79.66;100944.53;1766560;81;25750;-62
2022/03/03 07:30:29;;;;;;;20.37;12.88;;;;;;;0.72;79.52;100941.28;1766822;81;26719;-62
2022/03/03 07:33:13;;;;;;;20.37;12.82;;;;;;;0.74;79.64;100940.76;1766628;81;25770;-61
2022/03/03 07:35:43;;;;;;;20.85;13.43;;;;;;;0.73;79.58;100941.20;1766978;81;27463;-61
2022/03/03 07:38:14;;;;;;;19.20;12.13;;;;;;;0.69;79.54;100940.09;1779308;80;25746;-61
2022/03/03 07:40:43;;;;;;;20.97;12.70;;;;;;;0.66;79.75;100938.44;1742407;82;25475;-62
2022/03/03 07:43:15;;;;;;;28.17;13.68;;;;;;;0.62;80.07;100932.91;1731453;82;26219;-61
2022/03/03 07:45:43;;;;;;;22.48;12.78;;;;;;;0.62;80.20;100940.37;1694936;84;26052;-61
2022/03/03 07:48:14;;;;;;;19.82;11.73;;;;;;;0.66;80.47;100941.56;1695356;84;28165;-61
2022/03/03 07:50:42;;;;;;;20.75;13.65;;;;;;;0.65;80.39;100939.84;1695241;84;25543;-61
2022/03/03 07:53:12;;;;;;;25.43;13.98;;;;;;;0.67;80.25;100934.02;1695336;83;25736;-61
2022/03/03 07:55:48;;;;;;;24.07;14.50;;;;;;;0.62;80.50;100935.08;1703261;84;26755;-61
2022/03/03 07:58:22;;;;;;;19.45;12.75;;;;;;;0.65;80.38;100931.91;1703288;83;25739;-60
2022/03/03 08:00:51;;;;;;;;;;;;;;;0.62;80.36;100929.78;1706549;83;28203;-61
2022/03/03 08:03:21;;;;;;;26.25;15.63;;;;;;;0.60;80.90;100930.78;1703832;83;25791;-60
2022/03/03 08:05:51;;;;;;;22.27;14.05;;;;;;;0.64;80.62;100928.85;1703065;83;25661;-59
2022/03/03 08:08:26;;;;;;;21.50;13.30;;;;;;;0.64;80.61;100928.37;1703004;84;26750;-60
2022/03/03 08:11:09;;;;;;;23.18;15.15;;;;;;;0.62;80.41;100927.12;1703499;83;25755;-61
2022/03/03 08:13:37;;;;;;;22.00;12.85;;;;;;;0.69;80.37;100932.14;1703280;83;27492;-61
2022/03/03 08:16:05;;;;;;;22.02;13.32;;;;;;;0.74;80.33;100931.48;1703526;83;25549;-60
2022/03/03 08:18:38;;;;;;;27.85;15.45;;;;;;;0.80;80.14;100921.94;1705118;83;25849;-61
2022/03/03 08:21:06;;;;;;;20.43;13.32;;;;;;;0.87;80.18;100924.69;1707775;83;26091;-61
2022/03/03 08:23:34;;;;;;;20.37;12.73;;;;;;;0.98;80.06;100920.25;1707132;84;25828;-61
2022/03/03 08:26:03;;;;;;;18.57;11.95;;;;;;;1.01;79.60;100912.62;1707822;83;28311;-60
2022/03/03 08:28:31;;;;;;;18.95;12.63;;;;;;;1.04;79.57;100911.13;1707732;83;25769;-59
2022/03/03 08:31:02;;;;;;;22.75;13.62;;;;;;;1.14;79.74;100915.55;1707845;83;25747;-61
2022/03/03 08:34:12;;;;;;;25.00;12.93;;;;;;;1.19;79.17;100916.19;1707686;83;26086;-60
2022/03/03 08:36:45;;;;;;;24.37;13.10;;;;;;;1.24;79.22;100912.87;1715367;82;25874;-61
2022/03/03 08:39:19;;;;;;;21.97;12.47;;;;;;;1.25;78.57;100918.56;1741892;82;28278;-61
2022/03/03 08:41:46;;;;;;;19.37;12.43;;;;;;;1.24;78.72;100916.36;1743441;82;35310;-61
2022/03/03 08:44:14;;;;;;;21.95;13.08;;;;;;;1.23;78.75;100913.31;1720017;82;25781;-61
2022/03/03 08:46:42;;;;;;;23.77;12.78;;;;;;;1.33;79.01;100915.53;1698577;83;26163;-61
2022/03/03 08:49:11;;;;;;;20.80;13.38;;;;;;;1.37;78.53;100911.81;1713630;83;26040;-62
2022/03/03 08:51:39;;;;;;;19.57;13.10;;;;;;;1.39;78.58;100909.47;1713775;83;27406;-61
2022/03/03 08:54:07;;;;;;;20.05;11.43;;;;;;;1.42;78.56;100910.27;1713589;83;25873;-61
2022/03/03 08:56:35;;;;;;;19.85;12.23;;;;;;;1.44;78.32;100909.25;1713660;82;25738;-62
2022/03/03 08:59:05;;;;;;;19.45;12.88;;;;;;;1.46;78.24;100904.75;1713736;83;25523;-62
2022/03/03 09:01:32;;;;;;;18.10;11.75;;;;;;;1.45;78.33;100907.00;1713664;83;25727;-61
2022/03/03 09:03:59;;;;;;;17.77;11.68;;;;;;;1.48;78.20;100905.98;1713624;83;26764;-62
2022/03/03 09:06:27;;;;;;;23.50;13.58;;;;;;;1.49;78.43;100906.38;1713436;83;25768;-62
2022/03/03 09:08:54;;;;;;;23.75;12.68;;;;;;;1.50;78.30;100903.64;1713587;83;25768;-61
2022/03/03 09:11:22;;;;;;;16.50;11.73;;;;;;;1.60;78.52;100905.40;1713981;83;26062;-61
2022/03/03 09:13:50;;;;;;;22.22;12.07;;;;;;;1.64;78.12;100906.95;1713611;83;25862;-61
2022/03/03 09:16:18;;;;;;;19.37;12.35;;;;;;;1.62;78.03;100905.31;1713598;83;27537;-61
2022/03/03 09:18:46;;;;;;;22.22;13.45;;;;;;;1.68;78.12;100910.31;1704628;83;25546;-62
2022/03/03 09:21:14;;;;;;;20.05;12.00;;;;;;;1.74;78.01;100914.00;1692154;84;25552;-62
2022/03/03 09:23:42;;;;;;;18.00;11.57;;;;;;;1.76;77.79;100912.11;1692003;84;26053;-62
2022/03/03 09:26:10;;;;;;;22.73;13.30;;;;;;;1.85;77.66;100914.31;1692049;84;25816;-62
2022/03/03 09:28:38;;;;;;;25.37;13.40;;;;;;;1.88;77.58;100911.52;1692357;84;27509;-62
2022/03/03 09:31:05;;;;;;;19.92;12.60;;;;;;;1.95;77.29;100910.74;1691862;84;25740;-61
2022/03/03 09:33:32;;;;;;;17.90;13.00;;;;;;;1.98;77.12;100905.75;1692282;84;25813;-61
2022/03/03 09:35:59;;;;;;;19.95;11.48;;;;;;;2.06;76.91;100904.89;1693517;83;26111;-61
2022/03/03 09:38:26;;;;;;;16.30;11.57;;;;;;;2.05;76.15;100900.99;1721491;83;25466;-60
2022/03/03 09:40:53;;;;;;;15.53;11.73;;;;;;;2.05;76.08;100897.86;1721021;83;27474;-60
2022/03/03 09:43:20;;;;;;;18.77;11.45;;;;;;;2.10;75.90;100905.13;1721554;81;25810;-62
2022/03/03 09:45:47;;;;;;;16.50;10.95;;;;;;;2.14;75.52;100902.70;1706355;83;25816;-61
2022/03/03 09:48:14;;;;;;;19.12;12.40;;;;;;;2.19;76.05;100904.66;1692174;84;26797;-62
2022/03/03 09:50:42;;;;;;;17.02;11.55;;;;;;;2.26;76.04;100903.02;1692087;83;25740;-62
2022/03/03 09:53:13;;;;;;;17.90;10.50;;;;;;;2.20;75.42;100901.53;1692343;83;27459;-62
2022/03/03 09:55:41;;;;;;;22.58;12.20;;;;;;;2.16;75.67;100903.48;1691924;84;25495;-62
2022/03/03 09:58:09;;;;;;;17.20;11.97;;;;;;;2.12;75.66;100901.06;1692391;84;25749;-62
2022/03/03 10:00:40;;;;;;;16.12;10.78;;;;;;;2.09;75.81;100894.58;1692184;84;26721;-61
2022/03/03 10:03:16;;;;;;;15.90;11.03;;;;;;;2.15;76.12;100896.94;1692316;83;25640;-62
2022/03/03 10:05:47;;;;;;;21.50;11.88;;;;;;;2.30;76.35;100892.60;1692298;84;27458;-62
2022/03/03 10:08:18;;;;;;;16.60;11.03;;;;;;;2.35;75.61;100893.23;1692254;84;25717;-61
2022/03/03 10:10:53;;;;;;;16.50;11.20;;;;;;;2.35;75.13;100891.91;1692083;84;25852;-61
2022/03/03 10:13:21;;;;;;;18.85;11.78;;;;;;;2.30;74.23;100891.28;1692199;84;26052;-62
2022/03/03 10:15:59;;;;;;;19.48;12.10;;;;;;;2.30;74.64;100889.95;1692266;84;25836;-62
2022/03/03 10:18:27;;;;;;;20.17;13.40;;;;;;;2.28;74.21;100886.54;1694370;81;27495;-62
2022/03/03 10:21:00;;;;;;;18.32;12.88;;;;;;;2.26;74.45;100887.08;1713510;83;25818;-62
2022/03/03 10:23:31;;;;;;;18.52;12.23;;;;;;;2.29;74.69;100884.25;1713799;83;25763;-62
2022/03/03 10:26:02;;;;;;;19.35;12.15;;;;;;;2.30;74.61;100882.86;1734458;81;26145;-62
2022/03/03 10:28:32;;;;;;;19.70;12.20;;;;;;;2.37;74.65;100882.53;1734631;82;25799;-60
2022/03/03 10:31:13;;;;;;;19.82;12.35;;;;;;;2.42;74.62;100877.37;1734533;82;27452;-60
2022/03/03 10:33:47;;;;;;;16.48;11.00;;;;;;;2.45;74.36;100875.02;1734513;82;25688;-61
2022/03/03 10:36:15;;;;;;;;;;;;;;;2.44;74.20;100874.17;1739110;81;25820;-61
2022/03/03 10:38:58;;;;;;;19.95;13.55;;;;;;;2.56;74.53;100875.31;1769486;80;26083;-61
2022/03/03 10:41:44;;;;;;;22.60;14.03;;;;;;;2.58;73.89;100880.53;1769369;81;25481;-61
2022/03/03 10:44:16;;;;;;;19.82;11.95;;;;;;;2.63;74.26;100873.19;1726497;81;28179;-61
2022/03/03 10:47:14;;;;;;;23.22;12.75;;;;;;;2.69;73.92;100878.65;1713672;83;25667;-61
2022/03/03 10:49:45;;;;;;;23.30;12.82;;;;;;;2.67;74.08;100874.73;1737369;82;25939;-61
2022/03/03 10:52:29;;;;;;;24.30;12.25;;;;;;;2.72;74.14;100876.68;1744278;82;26742;-61
2022/03/03 10:55:03;;;;;;;19.15;12.25;;;;;;;2.74;73.92;100873.94;1744664;82;25801;-62
2022/03/03 10:57:41;;;;;;;29.65;14.58;;;;;;;2.68;73.70;100870.29;1744500;82;28844;-62
2022/03/03 11:00:24;;;;;;;25.57;14.63;;;;;;;2.72;74.22;100873.15;1744191;82;25803;-62
2022/03/03 11:02:57;;;;;;;35.43;19.42;;;;;;;2.76;74.16;100862.27;1744321;82;25513;-62
2022/03/03 11:05:26;;;;;;;24.60;15.08;;;;;;;2.78;73.84;100864.87;1744368;82;26004;-61
2022/03/03 11:07:54;;;;;;;20.65;13.10;;;;;;;2.81;73.92;100868.66;1744605;82;25770;-61
2022/03/03 11:10:24;;;;;;;20.77;13.15;;;;;;;2.93;73.88;100858.70;1744363;82;27874;-61
2022/03/03 11:12:52;;;;;;;20.85;12.55;;;;;;;3.07;73.13;100853.08;1744423;81;25542;-61
2022/03/03 11:15:24;;;;;;;20.32;13.50;;;;;;;3.24;73.11;100856.12;1744338;81;25697;-61
2022/03/03 11:17:55;;;;;;;18.10;12.88;;;;;;;3.41;72.77;100853.82;1744551;82;26951;-61
2022/03/03 11:20:23;;;;;;;21.75;12.88;;;;;;;3.65;72.85;100852.88;1736177;81;26561;-61
2022/03/03 11:22:54;;;;;;;22.50;12.80;;;;;;;3.84;71.98;100845.15;1734302;82;27467;-61
2022/03/03 11:25:34;;;;;;;18.75;12.00;;;;;;;3.81;70.99;100850.19;1733900;81;25807;-62
2022/03/03 11:28:08;;;;;;;15.98;10.48;;;;;;;3.88;70.91;100848.87;1734205;81;25723;-62